sensor_id;sensor_type;location;lat;lon;timestamp;P1;durP1;ratioP1;P2;durP2;ratioP2
3141;SDS011;1581;51.568;6.998;2023-07-28T00:00:05;4.50;;;3.90;;
3141;SDS011;1581;51.568;6.998;2023-07-28T00:02:34;9.53;;;4.30;;
3141;SDS011;1581;51.568;6.998;2023-07-28T00:05:02;3.80;;;3.40;;
3141;SDS011;1581;51.568;6.998;2023-07-28T00:07:30;5.00;;;3.73;;
3141;SDS011;1581;51.568;6.998;2023-07-28T00:10:00;6.30;;;4.87;;
3141;SDS011;1581;51.568;6.998;2023-07-28T00:12:29;6.37;;;5.40;;
3141;SDS011;1581;51.568;6.998;2023-07-28T00:14:57;7.70;;;5.90;;
3141;SDS011;1581;51.568;6.998;2023-07-28T00:17:25;5.67;;;5.17;;
3141;SDS011;1581;51.568;6.998;2023-07-28T00:19:53;5.33;;;4.83;;
3141;SDS011;1581;51.568;6.998;2023-07-28T00:22:20;5.93;;;5.33;;
3141;SDS011;1581;51.568;6.998;2023-07-28T00:24:48;5.13;;;4.57;;
3141;SDS011;1581;51.568;6.998;2023-07-28T00:27:16;12.90;;;6.07;;
3141;SDS011;1581;51.568;6.998;2023-07-28T00:29:45;6.60;;;5.27;;
3141;SDS011;1581;51.568;6.998;2023-07-28T00:32:12;5.23;;;4.60;;
3141;SDS011;1581;51.568;6.998;2023-07-28T00:34:40;5.88;;;4.90;;
3141;SDS011;1581;51.568;6.998;2023-07-28T00:37:08;4.60;;;4.20;;
3141;SDS011;1581;51.568;6.998;2023-07-28T00:39:35;3.73;;;3.53;;
3141;SDS011;1581;51.568;6.998;2023-07-28T00:42:03;6.50;;;3.40;;
3141;SDS011;1581;51.568;6.998;2023-07-28T00:44:34;3.43;;;3.23;;
3141;SDS011;1581;51.568;6.998;2023-07-28T00:47:03;3.33;;;3.07;;
3141;SDS011;1581;51.568;6.998;2023-07-28T00:49:32;4.30;;;3.87;;
3141;SDS011;1581;51.568;6.998;2023-07-28T00:52:00;4.10;;;3.80;;
3141;SDS011;1581;51.568;6.998;2023-07-28T00:54:28;7.20;;;3.50;;
3141;SDS011;1581;51.568;6.998;2023-07-28T00:56:56;4.50;;;4.20;;
3141;SDS011;1581;51.568;6.998;2023-07-28T00:59:25;4.30;;;4.00;;
3141;SDS011;1581;51.568;6.998;2023-07-28T01:01:53;3.70;;;3.40;;
3141;SDS011;1581;51.568;6.998;2023-07-28T01:04:22;4.67;;;4.37;;
3141;SDS011;1581;51.568;6.998;2023-07-28T01:06:52;5.83;;;4.20;;
3141;SDS011;1581;51.568;6.998;2023-07-28T01:09:26;5.10;;;4.43;;
3141;SDS011;1581;51.568;6.998;2023-07-28T01:12:06;5.00;;;4.60;;
3141;SDS011;1581;51.568;6.998;2023-07-28T01:14:35;6.03;;;5.43;;
3141;SDS011;1581;51.568;6.998;2023-07-28T01:17:03;5.37;;;4.87;;
3141;SDS011;1581;51.568;6.998;2023-07-28T01:19:32;6.87;;;5.20;;
3141;SDS011;1581;51.568;6.998;2023-07-28T01:22:06;5.77;;;4.77;;
3141;SDS011;1581;51.568;6.998;2023-07-28T01:24:55;7.40;;;5.20;;
3141;SDS011;1581;51.568;6.998;2023-07-28T01:27:34;6.13;;;5.33;;
3141;SDS011;1581;51.568;6.998;2023-07-28T01:30:07;5.83;;;4.97;;
3141;SDS011;1581;51.568;6.998;2023-07-28T01:32:36;4.67;;;4.30;;
3141;SDS011;1581;51.568;6.998;2023-07-28T01:35:04;7.23;;;5.47;;
3141;SDS011;1581;51.568;6.998;2023-07-28T01:37:33;6.97;;;5.50;;
3141;SDS011;1581;51.568;6.998;2023-07-28T01:40:01;6.85;;;4.55;;
3141;SDS011;1581;51.568;6.998;2023-07-28T01:42:29;5.30;;;4.90;;
3141;SDS011;1581;51.568;6.998;2023-07-28T01:44:58;5.27;;;4.87;;
3141;SDS011;1581;51.568;6.998;2023-07-28T01:47:26;5.47;;;4.73;;
3141;SDS011;1581;51.568;6.998;2023-07-28T01:49:54;4.50;;;4.13;;
3141;SDS011;1581;51.568;6.998;2023-07-28T01:52:22;8.27;;;5.43;;
3141;SDS011;1581;51.568;6.998;2023-07-28T01:54:50;6.03;;;5.43;;
3141;SDS011;1581;51.568;6.998;2023-07-28T01:57:17;5.53;;;5.03;;
3141;SDS011;1581;51.568;6.998;2023-07-28T01:59:45;4.93;;;4.63;;
3141;SDS011;1581;51.568;6.998;2023-07-28T02:02:14;6.50;;;5.20;;
3141;SDS011;1581;51.568;6.998;2023-07-28T02:04:42;5.90;;;5.07;;
3141;SDS011;1581;51.568;6.998;2023-07-28T02:07:09;6.00;;;5.40;;
3141;SDS011;1581;51.568;6.998;2023-07-28T02:09:37;6.33;;;5.77;;
3141;SDS011;1581;51.568;6.998;2023-07-28T02:12:05;6.40;;;5.90;;
3141;SDS011;1581;51.568;6.998;2023-07-28T02:14:33;5.70;;;5.20;;
3141;SDS011;1581;51.568;6.998;2023-07-28T02:17:01;6.30;;;5.70;;
3141;SDS011;1581;51.568;6.998;2023-07-28T02:19:30;7.00;;;5.43;;
3141;SDS011;1581;51.568;6.998;2023-07-28T02:21:58;5.87;;;5.37;;
3141;SDS011;1581;51.568;6.998;2023-07-28T02:24:25;7.70;;;5.93;;
3141;SDS011;1581;51.568;6.998;2023-07-28T02:26:53;7.93;;;6.03;;
3141;SDS011;1581;51.568;6.998;2023-07-28T02:29:20;6.20;;;5.70;;
3141;SDS011;1581;51.568;6.998;2023-07-28T02:31:48;8.15;;;6.07;;
3141;SDS011;1581;51.568;6.998;2023-07-28T02:34:16;8.10;;;5.80;;
3141;SDS011;1581;51.568;6.998;2023-07-28T02:36:45;7.15;;;5.45;;
3141;SDS011;1581;51.568;6.998;2023-07-28T02:39:13;9.23;;;5.93;;
3141;SDS011;1581;51.568;6.998;2023-07-28T02:41:41;8.15;;;6.20;;
3141;SDS011;1581;51.568;6.998;2023-07-28T02:44:09;9.83;;;6.83;;
3141;SDS011;1581;51.568;6.998;2023-07-28T02:46:36;12.73;;;6.03;;
3141;SDS011;1581;51.568;6.998;2023-07-28T02:49:04;7.07;;;5.68;;
3141;SDS011;1581;51.568;6.998;2023-07-28T02:51:32;10.60;;;5.90;;
3141;SDS011;1581;51.568;6.998;2023-07-28T02:54:01;6.20;;;5.70;;
3141;SDS011;1581;51.568;6.998;2023-07-28T02:56:29;7.83;;;6.50;;
3141;SDS011;1581;51.568;6.998;2023-07-28T02:59:02;6.73;;;6.13;;
3141;SDS011;1581;51.568;6.998;2023-07-28T03:01:30;7.10;;;5.93;;
3141;SDS011;1581;51.568;6.998;2023-07-28T03:03:58;8.10;;;6.27;;
3141;SDS011;1581;51.568;6.998;2023-07-28T03:06:27;7.10;;;6.20;;
3141;SDS011;1581;51.568;6.998;2023-07-28T03:08:54;10.40;;;6.70;;
3141;SDS011;1581;51.568;6.998;2023-07-28T03:11:25;8.07;;;6.10;;
3141;SDS011;1581;51.568;6.998;2023-07-28T03:13:53;7.50;;;6.27;;
3141;SDS011;1581;51.568;6.998;2023-07-28T03:16:21;7.43;;;6.37;;
3141;SDS011;1581;51.568;6.998;2023-07-28T03:18:48;7.43;;;6.10;;
3141;SDS011;1581;51.568;6.998;2023-07-28T03:21:16;7.40;;;6.33;;
3141;SDS011;1581;51.568;6.998;2023-07-28T03:23:45;11.30;;;8.20;;
3141;SDS011;1581;51.568;6.998;2023-07-28T03:26:12;7.70;;;6.97;;
3141;SDS011;1581;51.568;6.998;2023-07-28T03:28:41;9.30;;;7.40;;
3141;SDS011;1581;51.568;6.998;2023-07-28T03:31:09;10.83;;;7.50;;
3141;SDS011;1581;51.568;6.998;2023-07-28T03:33:37;9.37;;;7.37;;
3141;SDS011;1581;51.568;6.998;2023-07-28T03:36:05;10.67;;;7.37;;
3141;SDS011;1581;51.568;6.998;2023-07-28T03:38:33;8.87;;;7.63;;
3141;SDS011;1581;51.568;6.998;2023-07-28T03:41:01;10.43;;;7.47;;
3141;SDS011;1581;51.568;6.998;2023-07-28T03:43:29;8.40;;;7.30;;
3141;SDS011;1581;51.568;6.998;2023-07-28T03:45:57;13.65;;;8.05;;
3141;SDS011;1581;51.568;6.998;2023-07-28T03:48:25;8.80;;;7.47;;
3141;SDS011;1581;51.568;6.998;2023-07-28T03:50:53;10.40;;;7.20;;
3141;SDS011;1581;51.568;6.998;2023-07-28T03:53:21;8.73;;;6.93;;
3141;SDS011;1581;51.568;6.998;2023-07-28T03:55:48;7.87;;;6.60;;
3141;SDS011;1581;51.568;6.998;2023-07-28T03:58:16;7.77;;;5.80;;
3141;SDS011;1581;51.568;6.998;2023-07-28T04:00:44;6.43;;;5.83;;
3141;SDS011;1581;51.568;6.998;2023-07-28T04:03:14;6.83;;;6.23;;
3141;SDS011;1581;51.568;6.998;2023-07-28T04:05:41;9.10;;;6.38;;
3141;SDS011;1581;51.568;6.998;2023-07-28T04:08:09;6.73;;;6.13;;
3141;SDS011;1581;51.568;6.998;2023-07-28T04:10:36;5.45;;;4.95;;
3141;SDS011;1581;51.568;6.998;2023-07-28T04:13:04;8.55;;;5.93;;
3141;SDS011;1581;51.568;6.998;2023-07-28T04:15:32;7.63;;;6.17;;
3141;SDS011;1581;51.568;6.998;2023-07-28T04:17:59;6.67;;;5.63;;
3141;SDS011;1581;51.568;6.998;2023-07-28T04:20:29;7.75;;;6.95;;
3141;SDS011;1581;51.568;6.998;2023-07-28T04:22:56;7.20;;;6.40;;
3141;SDS011;1581;51.568;6.998;2023-07-28T04:25:24;5.70;;;5.20;;
3141;SDS011;1581;51.568;6.998;2023-07-28T04:27:51;11.50;;;6.97;;
3141;SDS011;1581;51.568;6.998;2023-07-28T04:30:20;6.80;;;6.13;;
3141;SDS011;1581;51.568;6.998;2023-07-28T04:32:48;7.43;;;5.95;;
3141;SDS011;1581;51.568;6.998;2023-07-28T04:35:15;10.10;;;6.10;;
3141;SDS011;1581;51.568;6.998;2023-07-28T04:37:44;6.43;;;5.80;;
3141;SDS011;1581;51.568;6.998;2023-07-28T04:40:12;10.63;;;8.82;;
3141;SDS011;1581;51.568;6.998;2023-07-28T04:42:40;8.03;;;7.23;;
3141;SDS011;1581;51.568;6.998;2023-07-28T04:45:08;8.60;;;7.80;;
3141;SDS011;1581;51.568;6.998;2023-07-28T04:47:36;10.13;;;8.23;;
3141;SDS011;1581;51.568;6.998;2023-07-28T04:50:04;9.40;;;7.70;;
3141;SDS011;1581;51.568;6.998;2023-07-28T04:52:32;8.98;;;8.05;;
3141;SDS011;1581;51.568;6.998;2023-07-28T04:55:02;8.40;;;7.60;;
3141;SDS011;1581;51.568;6.998;2023-07-28T04:57:30;9.87;;;8.77;;
3141;SDS011;1581;51.568;6.998;2023-07-28T04:59:57;9.18;;;8.20;;
3141;SDS011;1581;51.568;6.998;2023-07-28T05:02:25;9.27;;;8.37;;
3141;SDS011;1581;51.568;6.998;2023-07-28T05:04:53;11.33;;;8.40;;
3141;SDS011;1581;51.568;6.998;2023-07-28T05:07:21;10.57;;;8.18;;
3141;SDS011;1581;51.568;6.998;2023-07-28T05:09:49;12.73;;;8.32;;
3141;SDS011;1581;51.568;6.998;2023-07-28T05:12:18;11.20;;;8.25;;
3141;SDS011;1581;51.568;6.998;2023-07-28T05:14:46;10.23;;;6.95;;
3141;SDS011;1581;51.568;6.998;2023-07-28T05:17:14;8.45;;;7.55;;
3141;SDS011;1581;51.568;6.998;2023-07-28T05:19:42;8.20;;;7.40;;
3141;SDS011;1581;51.568;6.998;2023-07-28T05:22:09;6.97;;;6.27;;
3141;SDS011;1581;51.568;6.998;2023-07-28T05:24:37;7.03;;;6.10;;
3141;SDS011;1581;51.568;6.998;2023-07-28T05:27:05;8.52;;;6.35;;
3141;SDS011;1581;51.568;6.998;2023-07-28T05:29:34;6.27;;;5.67;;
3141;SDS011;1581;51.568;6.998;2023-07-28T05:32:02;6.07;;;5.47;;
3141;SDS011;1581;51.568;6.998;2023-07-28T05:34:30;6.03;;;5.43;;
3141;SDS011;1581;51.568;6.998;2023-07-28T05:36:58;5.25;;;4.55;;
3141;SDS011;1581;51.568;6.998;2023-07-28T05:39:26;5.03;;;4.53;;
3141;SDS011;1581;51.568;6.998;2023-07-28T05:41:53;6.88;;;4.85;;
3141;SDS011;1581;51.568;6.998;2023-07-28T05:44:21;9.65;;;5.43;;
3141;SDS011;1581;51.568;6.998;2023-07-28T05:46:51;6.03;;;5.40;;
3141;SDS011;1581;51.568;6.998;2023-07-28T05:49:18;5.15;;;4.50;;
3141;SDS011;1581;51.568;6.998;2023-07-28T05:51:46;5.80;;;4.53;;
3141;SDS011;1581;51.568;6.998;2023-07-28T05:54:14;5.25;;;4.75;;
3141;SDS011;1581;51.568;6.998;2023-07-28T05:56:42;4.45;;;4.05;;
3141;SDS011;1581;51.568;6.998;2023-07-28T05:59:10;5.22;;;4.80;;
3141;SDS011;1581;51.568;6.998;2023-07-28T06:01:37;5.25;;;4.75;;
3141;SDS011;1581;51.568;6.998;2023-07-28T06:04:06;4.95;;;4.28;;
3141;SDS011;1581;51.568;6.998;2023-07-28T06:06:34;4.35;;;3.95;;
3141;SDS011;1581;51.568;6.998;2023-07-28T06:09:01;6.07;;;4.32;;
3141;SDS011;1581;51.568;6.998;2023-07-28T06:11:29;4.35;;;3.92;;
3141;SDS011;1581;51.568;6.998;2023-07-28T06:13:57;5.60;;;5.00;;
3141;SDS011;1581;51.568;6.998;2023-07-28T06:16:25;4.80;;;4.40;;
3141;SDS011;1581;51.568;6.998;2023-07-28T06:18:52;5.00;;;4.50;;
3141;SDS011;1581;51.568;6.998;2023-07-28T06:21:22;5.93;;;4.70;;
3141;SDS011;1581;51.568;6.998;2023-07-28T06:23:49;7.30;;;5.50;;
3141;SDS011;1581;51.568;6.998;2023-07-28T06:26:17;5.28;;;4.78;;
3141;SDS011;1581;51.568;6.998;2023-07-28T06:28:45;5.25;;;4.10;;
3141;SDS011;1581;51.568;6.998;2023-07-28T06:31:13;6.43;;;5.13;;
3141;SDS011;1581;51.568;6.998;2023-07-28T06:33:40;5.63;;;4.95;;
3141;SDS011;1581;51.568;6.998;2023-07-28T06:36:08;5.65;;;5.13;;
3141;SDS011;1581;51.568;6.998;2023-07-28T06:38:37;7.95;;;4.75;;
3141;SDS011;1581;51.568;6.998;2023-07-28T06:41:05;5.72;;;5.22;;
3141;SDS011;1581;51.568;6.998;2023-07-28T06:43:32;6.30;;;5.60;;
3141;SDS011;1581;51.568;6.998;2023-07-28T06:46:00;6.97;;;4.82;;
3141;SDS011;1581;51.568;6.998;2023-07-28T06:48:29;5.40;;;4.72;;
3141;SDS011;1581;51.568;6.998;2023-07-28T06:50:56;5.80;;;4.55;;
3141;SDS011;1581;51.568;6.998;2023-07-28T06:53:24;5.47;;;4.82;;
3141;SDS011;1581;51.568;6.998;2023-07-28T06:55:53;6.03;;;4.80;;
3141;SDS011;1581;51.568;6.998;2023-07-28T06:58:21;7.22;;;5.05;;
3141;SDS011;1581;51.568;6.998;2023-07-28T07:00:48;8.48;;;5.85;;
3141;SDS011;1581;51.568;6.998;2023-07-28T07:03:16;5.63;;;4.88;;
3141;SDS011;1581;51.568;6.998;2023-07-28T07:05:44;6.60;;;5.88;;
3141;SDS011;1581;51.568;6.998;2023-07-28T07:08:12;8.43;;;6.00;;
3141;SDS011;1581;51.568;6.998;2023-07-28T07:10:40;6.78;;;6.07;;
3141;SDS011;1581;51.568;6.998;2023-07-28T07:13:15;8.25;;;6.85;;
3141;SDS011;1581;51.568;6.998;2023-07-28T07:15:43;9.65;;;7.72;;
3141;SDS011;1581;51.568;6.998;2023-07-28T07:18:11;10.93;;;7.15;;
3141;SDS011;1581;51.568;6.998;2023-07-28T07:20:39;8.00;;;6.80;;
3141;SDS011;1581;51.568;6.998;2023-07-28T07:23:07;6.93;;;6.07;;
3141;SDS011;1581;51.568;6.998;2023-07-28T07:25:35;7.47;;;6.03;;
3141;SDS011;1581;51.568;6.998;2023-07-28T07:28:03;5.88;;;5.38;;
3141;SDS011;1581;51.568;6.998;2023-07-28T07:30:33;7.90;;;4.82;;
3141;SDS011;1581;51.568;6.998;2023-07-28T07:33:01;5.70;;;5.03;;
3141;SDS011;1581;51.568;6.998;2023-07-28T07:35:29;10.88;;;5.03;;
3141;SDS011;1581;51.568;6.998;2023-07-28T07:37:57;6.97;;;5.35;;
3141;SDS011;1581;51.568;6.998;2023-07-28T07:40:24;6.25;;;5.47;;
3141;SDS011;1581;51.568;6.998;2023-07-28T07:42:52;5.80;;;5.20;;
3141;SDS011;1581;51.568;6.998;2023-07-28T07:45:21;7.75;;;6.03;;
3141;SDS011;1581;51.568;6.998;2023-07-28T07:47:50;7.07;;;6.28;;
3141;SDS011;1581;51.568;6.998;2023-07-28T07:50:18;7.28;;;5.60;;
3141;SDS011;1581;51.568;6.998;2023-07-28T07:52:47;7.38;;;5.80;;
3141;SDS011;1581;51.568;6.998;2023-07-28T07:55:14;9.25;;;6.55;;
3141;SDS011;1581;51.568;6.998;2023-07-28T07:57:42;8.73;;;5.88;;
3141;SDS011;1581;51.568;6.998;2023-07-28T08:00:10;8.07;;;6.05;;
3141;SDS011;1581;51.568;6.998;2023-07-28T08:02:39;7.45;;;5.65;;
3141;SDS011;1581;51.568;6.998;2023-07-28T08:05:08;8.48;;;6.05;;
3141;SDS011;1581;51.568;6.998;2023-07-28T08:07:36;9.80;;;8.32;;
3141;SDS011;1581;51.568;6.998;2023-07-28T08:10:04;10.13;;;8.52;;
3141;SDS011;1581;51.568;6.998;2023-07-28T08:12:33;11.95;;;9.13;;
3141;SDS011;1581;51.568;6.998;2023-07-28T08:15:00;10.45;;;9.05;;
3141;SDS011;1581;51.568;6.998;2023-07-28T08:17:28;9.57;;;8.18;;
3141;SDS011;1581;51.568;6.998;2023-07-28T08:19:56;10.52;;;9.25;;
3141;SDS011;1581;51.568;6.998;2023-07-28T08:22:25;11.27;;;10.07;;
3141;SDS011;1581;51.568;6.998;2023-07-28T08:24:53;14.80;;;9.65;;
3141;SDS011;1581;51.568;6.998;2023-07-28T08:27:21;11.70;;;8.88;;
3141;SDS011;1581;51.568;6.998;2023-07-28T08:29:49;12.45;;;9.50;;
3141;SDS011;1581;51.568;6.998;2023-07-28T08:32:16;13.00;;;9.05;;
3141;SDS011;1581;51.568;6.998;2023-07-28T08:34:44;9.48;;;8.38;;
3141;SDS011;1581;51.568;6.998;2023-07-28T08:37:12;10.43;;;7.75;;
3141;SDS011;1581;51.568;6.998;2023-07-28T08:39:41;10.70;;;7.18;;
3141;SDS011;1581;51.568;6.998;2023-07-28T08:42:09;11.77;;;6.70;;
3141;SDS011;1581;51.568;6.998;2023-07-28T08:44:36;11.48;;;7.95;;
3141;SDS011;1581;51.568;6.998;2023-07-28T08:47:04;9.50;;;8.23;;
3141;SDS011;1581;51.568;6.998;2023-07-28T08:49:33;9.60;;;7.97;;
3141;SDS011;1581;51.568;6.998;2023-07-28T08:52:02;9.43;;;8.07;;
3141;SDS011;1581;51.568;6.998;2023-07-28T08:54:32;8.98;;;7.55;;
3141;SDS011;1581;51.568;6.998;2023-07-28T08:57:01;13.10;;;7.57;;
3141;SDS011;1581;51.568;6.998;2023-07-28T08:59:29;11.60;;;7.82;;
3141;SDS011;1581;51.568;6.998;2023-07-28T09:01:57;9.27;;;8.27;;
3141;SDS011;1581;51.568;6.998;2023-07-28T09:04:25;10.10;;;7.70;;
3141;SDS011;1581;51.568;6.998;2023-07-28T09:06:53;7.97;;;6.90;;
3141;SDS011;1581;51.568;6.998;2023-07-28T09:09:21;7.65;;;6.85;;
3141;SDS011;1581;51.568;6.998;2023-07-28T09:11:49;6.65;;;6.00;;
3141;SDS011;1581;51.568;6.998;2023-07-28T09:14:21;7.05;;;6.35;;
3141;SDS011;1581;51.568;6.998;2023-07-28T09:16:50;6.95;;;5.50;;
3141;SDS011;1581;51.568;6.998;2023-07-28T09:19:19;6.55;;;5.20;;
3141;SDS011;1581;51.568;6.998;2023-07-28T09:21:57;4.95;;;4.55;;
3141;SDS011;1581;51.568;6.998;2023-07-28T09:24:29;6.28;;;5.57;;
3141;SDS011;1581;51.568;6.998;2023-07-28T09:26:58;3.90;;;3.60;;
3141;SDS011;1581;51.568;6.998;2023-07-28T09:29:28;2.40;;;2.30;;
3141;SDS011;1581;51.568;6.998;2023-07-28T09:32:02;3.60;;;3.40;;
3141;SDS011;1581;51.568;6.998;2023-07-28T09:34:30;5.82;;;3.55;;
3141;SDS011;1581;51.568;6.998;2023-07-28T09:36:59;3.10;;;2.90;;
3141;SDS011;1581;51.568;6.998;2023-07-28T09:39:27;4.50;;;3.00;;
3141;SDS011;1581;51.568;6.998;2023-07-28T09:41:55;5.30;;;4.80;;
3141;SDS011;1581;51.568;6.998;2023-07-28T09:44:26;6.75;;;6.13;;
3141;SDS011;1581;51.568;6.998;2023-07-28T09:46:56;7.03;;;6.32;;
3141;SDS011;1581;51.568;6.998;2023-07-28T09:49:27;6.47;;;5.82;;
3141;SDS011;1581;51.568;6.998;2023-07-28T09:52:04;5.72;;;5.25;;
3141;SDS011;1581;51.568;6.998;2023-07-28T09:54:38;5.30;;;4.85;;
3141;SDS011;1581;51.568;6.998;2023-07-28T09:57:08;4.85;;;4.35;;
3141;SDS011;1581;51.568;6.998;2023-07-28T09:59:42;2.60;;;2.40;;
3141;SDS011;1581;51.568;6.998;2023-07-28T10:02:11;2.20;;;1.85;;
3141;SDS011;1581;51.568;6.998;2023-07-28T10:04:40;1.85;;;1.38;;
3141;SDS011;1581;51.568;6.998;2023-07-28T10:07:07;3.30;;;1.70;;
3141;SDS011;1581;51.568;6.998;2023-07-28T10:09:36;2.25;;;1.80;;
3141;SDS011;1581;51.568;6.998;2023-07-28T10:12:05;3.88;;;2.90;;
3141;SDS011;1581;51.568;6.998;2023-07-28T10:14:45;2.50;;;2.35;;
3141;SDS011;1581;51.568;6.998;2023-07-28T10:17:15;3.67;;;3.47;;
3141;SDS011;1581;51.568;6.998;2023-07-28T10:19:43;4.32;;;3.97;;
3141;SDS011;1581;51.568;6.998;2023-07-28T10:22:11;5.68;;;5.07;;
3141;SDS011;1581;51.568;6.998;2023-07-28T10:24:51;5.53;;;4.57;;
3141;SDS011;1581;51.568;6.998;2023-07-28T10:27:31;4.55;;;4.25;;
3141;SDS011;1581;51.568;6.998;2023-07-28T10:30:05;4.43;;;4.13;;
3141;SDS011;1581;51.568;6.998;2023-07-28T10:32:38;4.13;;;3.83;;
3141;SDS011;1581;51.568;6.998;2023-07-28T10:35:08;3.78;;;3.47;;
3141;SDS011;1581;51.568;6.998;2023-07-28T10:37:49;3.50;;;3.25;;
3141;SDS011;1581;51.568;6.998;2023-07-28T10:43:00;4.90;;;3.28;;
3141;SDS011;1581;51.568;6.998;2023-07-28T10:45:31;3.30;;;3.10;;
3141;SDS011;1581;51.568;6.998;2023-07-28T10:47:59;2.95;;;2.78;;
3141;SDS011;1581;51.568;6.998;2023-07-28T10:50:29;3.70;;;3.00;;
3141;SDS011;1581;51.568;6.998;2023-07-28T10:52:58;2.90;;;2.70;;
3141;SDS011;1581;51.568;6.998;2023-07-28T10:55:26;2.83;;;2.60;;
3141;SDS011;1581;51.568;6.998;2023-07-28T10:57:55;4.18;;;3.40;;
3141;SDS011;1581;51.568;6.998;2023-07-28T11:00:23;4.93;;;3.35;;
3141;SDS011;1581;51.568;6.998;2023-07-28T11:02:53;5.57;;;3.38;;
3141;SDS011;1581;51.568;6.998;2023-07-28T11:05:21;4.55;;;4.15;;
3141;SDS011;1581;51.568;6.998;2023-07-28T11:07:52;4.88;;;4.35;;
3141;SDS011;1581;51.568;6.998;2023-07-28T11:10:22;5.20;;;4.32;;
3141;SDS011;1581;51.568;6.998;2023-07-28T11:12:51;3.42;;;3.13;;
3141;SDS011;1581;51.568;6.998;2023-07-28T11:15:19;3.78;;;3.47;;
3141;SDS011;1581;51.568;6.998;2023-07-28T11:17:48;6.05;;;3.83;;
3141;SDS011;1581;51.568;6.998;2023-07-28T11:20:19;3.92;;;3.60;;
3141;SDS011;1581;51.568;6.998;2023-07-28T11:22:52;5.18;;;4.78;;
3141;SDS011;1581;51.568;6.998;2023-07-28T11:25:21;10.63;;;6.05;;
3141;SDS011;1581;51.568;6.998;2023-07-28T11:27:50;5.75;;;4.38;;
3141;SDS011;1581;51.568;6.998;2023-07-28T11:30:18;4.03;;;3.65;;
3141;SDS011;1581;51.568;6.998;2023-07-28T11:32:47;2.88;;;2.67;;
3141;SDS011;1581;51.568;6.998;2023-07-28T11:35:18;2.55;;;2.45;;
3141;SDS011;1581;51.568;6.998;2023-07-28T11:37:49;5.03;;;2.15;;
3141;SDS011;1581;51.568;6.998;2023-07-28T11:40:19;2.08;;;1.98;;
3141;SDS011;1581;51.568;6.998;2023-07-28T11:42:51;2.10;;;1.80;;
3141;SDS011;1581;51.568;6.998;2023-07-28T11:45:21;2.13;;;2.03;;
3141;SDS011;1581;51.568;6.998;2023-07-28T11:47:59;1.83;;;1.73;;
3141;SDS011;1581;51.568;6.998;2023-07-28T11:50:34;2.30;;;2.10;;
3141;SDS011;1581;51.568;6.998;2023-07-28T11:53:04;2.15;;;1.90;;
3141;SDS011;1581;51.568;6.998;2023-07-28T11:55:32;2.33;;;2.13;;
3141;SDS011;1581;51.568;6.998;2023-07-28T11:58:01;2.42;;;2.25;;
3141;SDS011;1581;51.568;6.998;2023-07-28T12:00:31;1.88;;;1.77;;
3141;SDS011;1581;51.568;6.998;2023-07-28T12:03:02;2.05;;;1.95;;
3141;SDS011;1581;51.568;6.998;2023-07-28T12:05:33;1.58;;;1.48;;
3141;SDS011;1581;51.568;6.998;2023-07-28T12:08:00;2.13;;;1.45;;
3141;SDS011;1581;51.568;6.998;2023-07-28T12:10:29;1.70;;;1.17;;
3141;SDS011;1581;51.568;6.998;2023-07-28T12:12:58;1.00;;;1.00;;
3141;SDS011;1581;51.568;6.998;2023-07-28T12:15:31;2.17;;;1.10;;
3141;SDS011;1581;51.568;6.998;2023-07-28T12:18:07;1.60;;;1.48;;
3141;SDS011;1581;51.568;6.998;2023-07-28T12:20:40;1.48;;;1.30;;
3141;SDS011;1581;51.568;6.998;2023-07-28T12:23:12;1.00;;;1.00;;
3141;SDS011;1581;51.568;6.998;2023-07-28T12:25:41;3.40;;;0.75;;
3141;SDS011;1581;51.568;6.998;2023-07-28T12:28:10;0.93;;;0.93;;
3141;SDS011;1581;51.568;6.998;2023-07-28T12:30:38;1.02;;;0.60;;
3141;SDS011;1581;51.568;6.998;2023-07-28T12:33:06;1.05;;;0.80;;
3141;SDS011;1581;51.568;6.998;2023-07-28T12:35:33;0.73;;;0.73;;
3141;SDS011;1581;51.568;6.998;2023-07-28T12:38:04;0.98;;;0.85;;
3141;SDS011;1581;51.568;6.998;2023-07-28T12:40:33;1.73;;;1.00;;
3141;SDS011;1581;51.568;6.998;2023-07-28T12:43:01;1.00;;;0.98;;
3141;SDS011;1581;51.568;6.998;2023-07-28T12:45:31;1.40;;;0.90;;
3141;SDS011;1581;51.568;6.998;2023-07-28T12:47:58;1.17;;;1.17;;
3141;SDS011;1581;51.568;6.998;2023-07-28T12:50:27;1.98;;;0.90;;
3141;SDS011;1581;51.568;6.998;2023-07-28T12:52:55;1.50;;;1.05;;
3141;SDS011;1581;51.568;6.998;2023-07-28T12:55:25;2.70;;;1.42;;
3141;SDS011;1581;51.568;6.998;2023-07-28T12:57:52;1.15;;;1.15;;
3141;SDS011;1581;51.568;6.998;2023-07-28T13:00:20;1.88;;;1.10;;
3141;SDS011;1581;51.568;6.998;2023-07-28T13:02:48;0.98;;;0.98;;
3141;SDS011;1581;51.568;6.998;2023-07-28T13:05:16;1.58;;;1.48;;
3141;SDS011;1581;51.568;6.998;2023-07-28T13:07:44;1.52;;;1.42;;
3141;SDS011;1581;51.568;6.998;2023-07-28T13:10:12;2.63;;;1.40;;
3141;SDS011;1581;51.568;6.998;2023-07-28T13:12:41;1.50;;;1.40;;
3141;SDS011;1581;51.568;6.998;2023-07-28T13:15:08;1.55;;;1.42;;
3141;SDS011;1581;51.568;6.998;2023-07-28T13:17:37;1.05;;;1.05;;
3141;SDS011;1581;51.568;6.998;2023-07-28T13:20:05;1.92;;;1.02;;
3141;SDS011;1581;51.568;6.998;2023-07-28T13:22:34;1.40;;;1.30;;
3141;SDS011;1581;51.568;6.998;2023-07-28T13:25:02;1.35;;;1.10;;
3141;SDS011;1581;51.568;6.998;2023-07-28T13:27:31;1.00;;;1.00;;
3141;SDS011;1581;51.568;6.998;2023-07-28T13:30:00;1.27;;;0.70;;
3141;SDS011;1581;51.568;6.998;2023-07-28T13:32:30;0.90;;;0.90;;
3141;SDS011;1581;51.568;6.998;2023-07-28T13:34:57;0.80;;;0.80;;
3141;SDS011;1581;51.568;6.998;2023-07-28T13:37:25;3.22;;;1.02;;
3141;SDS011;1581;51.568;6.998;2023-07-28T13:39:52;0.80;;;0.80;;
3141;SDS011;1581;51.568;6.998;2023-07-28T13:42:20;1.00;;;0.90;;
3141;SDS011;1581;51.568;6.998;2023-07-28T13:44:48;1.23;;;1.23;;
3141;SDS011;1581;51.568;6.998;2023-07-28T13:47:17;2.65;;;1.05;;
3141;SDS011;1581;51.568;6.998;2023-07-28T13:49:45;1.00;;;1.00;;
3141;SDS011;1581;51.568;6.998;2023-07-28T13:52:13;1.00;;;1.00;;
3141;SDS011;1581;51.568;6.998;2023-07-28T13:54:40;0.85;;;0.85;;
3141;SDS011;1581;51.568;6.998;2023-07-28T13:57:09;1.25;;;0.70;;
3141;SDS011;1581;51.568;6.998;2023-07-28T13:59:39;0.80;;;0.80;;
3141;SDS011;1581;51.568;6.998;2023-07-28T14:02:07;5.18;;;1.75;;
3141;SDS011;1581;51.568;6.998;2023-07-28T14:04:36;0.75;;;0.70;;
3141;SDS011;1581;51.568;6.998;2023-07-28T14:07:04;0.75;;;0.73;;
3141;SDS011;1581;51.568;6.998;2023-07-28T14:09:31;0.90;;;0.70;;
3141;SDS011;1581;51.568;6.998;2023-07-28T14:11:59;1.75;;;0.60;;
3141;SDS011;1581;51.568;6.998;2023-07-28T14:14:27;0.90;;;0.90;;
3141;SDS011;1581;51.568;6.998;2023-07-28T14:16:55;1.65;;;0.90;;
3141;SDS011;1581;51.568;6.998;2023-07-28T14:19:23;2.63;;;0.73;;
3141;SDS011;1581;51.568;6.998;2023-07-28T14:21:52;0.60;;;0.60;;
3141;SDS011;1581;51.568;6.998;2023-07-28T14:24:20;0.70;;;0.70;;
3141;SDS011;1581;51.568;6.998;2023-07-28T14:26:48;1.05;;;0.98;;
3141;SDS011;1581;51.568;6.998;2023-07-28T14:29:15;1.20;;;0.70;;
3141;SDS011;1581;51.568;6.998;2023-07-28T14:31:43;0.85;;;0.60;;
3141;SDS011;1581;51.568;6.998;2023-07-28T14:34:11;0.93;;;0.93;;
3141;SDS011;1581;51.568;6.998;2023-07-28T14:36:39;1.13;;;0.70;;
3141;SDS011;1581;51.568;6.998;2023-07-28T14:39:10;0.88;;;0.70;;
3141;SDS011;1581;51.568;6.998;2023-07-28T14:41:38;0.88;;;0.75;;
3141;SDS011;1581;51.568;6.998;2023-07-28T14:44:05;1.52;;;0.85;;
3141;SDS011;1581;51.568;6.998;2023-07-28T14:46:33;0.60;;;0.60;;
3141;SDS011;1581;51.568;6.998;2023-07-28T14:49:01;0.98;;;0.80;;
3141;SDS011;1581;51.568;6.998;2023-07-28T14:51:29;0.50;;;0.50;;
3141;SDS011;1581;51.568;6.998;2023-07-28T14:53:57;1.83;;;0.68;;
3141;SDS011;1581;51.568;6.998;2023-07-28T14:56:26;2.15;;;0.90;;
3141;SDS011;1581;51.568;6.998;2023-07-28T14:58:53;1.52;;;0.75;;
3141;SDS011;1581;51.568;6.998;2023-07-28T15:01:23;0.70;;;0.70;;
3141;SDS011;1581;51.568;6.998;2023-07-28T15:03:51;1.85;;;0.70;;
3141;SDS011;1581;51.568;6.998;2023-07-28T15:06:19;1.50;;;0.50;;
3141;SDS011;1581;51.568;6.998;2023-07-28T15:08:46;0.50;;;0.50;;
3141;SDS011;1581;51.568;6.998;2023-07-28T15:11:14;0.77;;;0.60;;
3141;SDS011;1581;51.568;6.998;2023-07-28T15:13:44;0.60;;;0.60;;
3141;SDS011;1581;51.568;6.998;2023-07-28T15:16:12;0.68;;;0.68;;
3141;SDS011;1581;51.568;6.998;2023-07-28T15:18:40;0.80;;;0.80;;
3141;SDS011;1581;51.568;6.998;2023-07-28T15:21:08;0.75;;;0.60;;
3141;SDS011;1581;51.568;6.998;2023-07-28T15:23:37;2.03;;;0.90;;
3141;SDS011;1581;51.568;6.998;2023-07-28T15:26:05;0.95;;;0.95;;